Main page
METAR-TAF:

METAR-TAF

Airports :

Kristianstad Airport

Kristianstad, Sweden

latitude: 55-55N, longitude: 014-05E, elevation: 23 m

Current weather observation

The report was made 13 minutes ago, at 18:20 UTC
Wind 6 kt from the South
Temperature 20°C
Humidity 73%
Pressure 1013 hPa
Visibility 10 km or more

METAR: ESMK 231820Z AUTO 19006KT 9999 OVC100/// 20/15 Q1013

Time: 20:33 (18:33 UTC)

Forecast

The report was made 7 hours and 19 minutes ago, at 11:14 UTC
Forecast valid from 23 at 12 UTC to 23 at 14 UTC
Wind 5 kt from the Southwest
Visibility 10 km or more
Scattered clouds at a height of 2000 ft
Temporary
from 23 at 12 UTC to 23 at 14 UTC
Scattered clouds at a height of 2000 ft, Cumulonimbus.
rain showers,

TAF: ESMK 231114Z 2312/2314 22005KT 9999 SCT020 TEMPO 2312/2314 SHRA SCT020CB

Weather observations and forecasts of more than 4000 airports (METAR and TAF reports).

The available stations are represented by yellow and red dots on the map.

Hover mouse over dot to see the name of the station.

Then click to see weather observations and forecasts.

To change the map : click on the green buttons with a black cross to zoom in, on the green button with a dash to zoom out, or on the green arrows for adjacent maps.


METAR-TAF: